createdAt,value
2017-01-16T00:00:06.444Z,48.2
2017-01-16T00:10:06.402Z,48.2
2017-01-16T00:20:06.408Z,48.2
2017-01-16T00:30:06.403Z,48.7
2017-01-16T00:40:06.401Z,48.2
2017-01-16T00:50:06.401Z,48.2
2017-01-16T01:00:06.437Z,48.2
2017-01-16T01:10:06.400Z,48.7
2017-01-16T01:20:06.402Z,47.6
2017-01-16T01:30:06.396Z,48.7
2017-01-16T01:40:06.436Z,48.7
2017-01-16T01:50:06.470Z,47.6
2017-01-16T02:00:06.397Z,47.6
2017-01-16T02:10:06.400Z,48.2
2017-01-16T02:20:06.396Z,47.6
2017-01-16T02:30:06.467Z,47.6
2017-01-16T02:40:06.426Z,47.6
2017-01-16T02:50:06.399Z,47.6
2017-01-16T03:00:06.401Z,47.6
2017-01-16T03:10:06.416Z,47.6
2017-01-16T03:20:06.397Z,47.6
2017-01-16T03:30:06.398Z,47.6
2017-01-16T03:40:06.399Z,47.6
2017-01-16T03:50:06.430Z,47.1
2017-01-16T04:00:06.460Z,47.1
2017-01-16T04:10:06.400Z,46.5
2017-01-16T04:20:06.400Z,47.1
2017-01-16T04:30:06.427Z,47.1
2017-01-16T04:40:06.458Z,47.1
2017-01-16T04:50:06.408Z,47.1
2017-01-16T05:00:06.429Z,47.1
2017-01-16T05:10:06.397Z,47.6
2017-01-16T05:20:06.431Z,47.6
2017-01-16T05:30:06.400Z,47.6
2017-01-16T05:40:06.430Z,47.1
2017-01-16T05:50:06.402Z,47.1
2017-01-16T06:00:06.400Z,47.1
2017-01-16T06:10:06.401Z,47.1
2017-01-16T06:20:06.402Z,48.2
2017-01-16T06:30:06.433Z,47.6
2017-01-16T06:40:06.432Z,47.6
2017-01-16T06:50:06.408Z,47.1
2017-01-16T07:00:06.404Z,47.1
2017-01-16T07:10:06.397Z,47.1
2017-01-16T07:20:06.428Z,47.1
2017-01-16T07:30:06.397Z,46.5
2017-01-16T07:40:06.397Z,47.1
2017-01-16T07:50:06.433Z,47.6
2017-01-16T08:00:06.429Z,47.1
2017-01-16T08:10:06.400Z,47.1
2017-01-16T08:20:06.426Z,47.1
2017-01-16T08:30:06.398Z,47.1
2017-01-16T08:40:06.423Z,47.1
2017-01-16T08:50:06.402Z,47.1
2017-01-16T09:00:06.424Z,47.1
2017-01-16T09:10:02.437Z,47.1
2017-01-16T09:20:06.453Z,47.6
2017-01-16T09:30:06.425Z,47.1
2017-01-16T09:40:06.404Z,47.6
2017-01-16T09:50:06.397Z,47.6
2017-01-16T10:00:06.410Z,47.6
2017-01-16T10:10:06.400Z,47.1
2017-01-16T10:20:06.404Z,47.1
2017-01-16T10:30:06.402Z,46.5
2017-01-16T10:40:06.400Z,47.1
2017-01-16T10:50:06.412Z,46.5
2017-01-16T11:00:06.400Z,46.5
2017-01-16T11:10:06.479Z,47.1
2017-01-16T11:20:06.401Z,47.1
2017-01-16T11:30:06.444Z,47.1
2017-01-16T11:40:06.430Z,47.6
2017-01-16T11:50:06.399Z,47.6
2017-01-16T12:00:06.397Z,47.6
2017-01-16T12:10:06.440Z,47.1
2017-01-16T12:20:06.397Z,47.6
2017-01-16T12:30:00.378Z,47.1
2017-01-16T12:40:16.394Z,47.1
2017-01-16T12:50:06.423Z,47.6
2017-01-16T13:00:06.400Z,47.1
2017-01-16T13:10:06.430Z,47.1
2017-01-16T13:20:06.393Z,47.6
2017-01-16T13:30:06.391Z,47.1
2017-01-16T13:40:03.195Z,47.1
2017-01-16T13:50:06.440Z,47.1
2017-01-16T14:00:06.396Z,46.5
2017-01-16T14:10:06.398Z,46
2017-01-16T14:20:06.460Z,46
2017-01-16T14:30:06.432Z,45.5
2017-01-16T14:40:06.432Z,46
2017-01-16T14:50:06.400Z,46.5
2017-01-16T15:00:06.407Z,46.5
2017-01-16T15:10:06.411Z,46.5
2017-01-16T15:20:06.410Z,46.5
2017-01-16T15:30:06.441Z,45.5
2017-01-16T15:40:06.437Z,46
2017-01-16T15:50:06.471Z,46
2017-01-16T16:00:06.436Z,45.5
2017-01-16T16:10:06.439Z,45.5
2017-01-16T16:20:06.434Z,45.5
2017-01-16T16:30:06.404Z,45.5
2017-01-16T16:40:06.434Z,45.5
2017-01-16T16:50:06.436Z,45.5
2017-01-16T17:00:06.408Z,44.9
2017-01-16T17:10:06.401Z,45.5
2017-01-16T17:20:06.440Z,44.9
2017-01-16T17:30:06.400Z,45.5
2017-01-16T17:40:06.511Z,45.5
2017-01-16T17:50:06.407Z,44.9
2017-01-16T18:00:06.408Z,45.5
2017-01-16T18:10:06.426Z,44.9
2017-01-16T18:20:06.441Z,45.5
2017-01-16T18:30:06.632Z,44.4
2017-01-16T18:40:06.627Z,44.9
2017-01-16T18:50:06.401Z,45.5
2017-01-16T19:00:06.626Z,44.4
2017-01-16T19:10:06.623Z,44.4
2017-01-16T19:20:06.433Z,44.9
2017-01-16T19:30:06.416Z,44.9
2017-01-16T19:40:06.624Z,44.9
2017-01-16T19:50:06.439Z,44.4
2017-01-16T20:00:06.396Z,45.5
2017-01-16T20:10:06.432Z,44.9
2017-01-16T20:20:06.625Z,44.9
2017-01-16T20:30:06.455Z,44.4
2017-01-16T20:40:06.397Z,44.9
2017-01-16T20:50:06.455Z,44.4
2017-01-16T21:00:06.620Z,44.4
2017-01-16T21:10:06.437Z,44.9
2017-01-16T21:20:06.428Z,44.4
2017-01-16T21:30:06.436Z,44.9
2017-01-16T21:40:17.187Z,44.4
2017-01-16T21:50:06.442Z,44.4
2017-01-16T22:00:06.433Z,45.5
2017-01-16T22:10:06.399Z,44.9
2017-01-16T22:20:06.403Z,44.4
2017-01-16T22:30:06.403Z,44.9
2017-01-16T22:40:06.473Z,44.9
2017-01-16T22:50:06.409Z,44.9
2017-01-16T23:00:06.403Z,44.4
2017-01-16T23:10:06.401Z,44.9
2017-01-16T23:20:06.414Z,45.5
2017-01-16T23:30:06.411Z,45.5
2017-01-16T23:40:06.406Z,45.5
2017-01-16T23:50:06.440Z,44.9
